Aviation Digital Data Service (ADDS)

Output produced by METARs form (0309 UTC 22 April 2019)
found at http://www.aviationweather.gov/metar/data/
 
Forecast for: UIAA (CITA/KADALA , RU)
Text: TAF UIAA 220200Z 2203/2303 30008G15MPS 3100 -SHSN BKN020CB
Forecast period: 0300 UTC 22 April 2019 to 0300 UTC 23 April 2019
Forecast type: FROM: standard forecast or significant change
Winds: from the WNW (300 degrees) at 18 MPH (16 knots; 8.2 m/s)
gusting to 33 MPH (29 knots; 14.9 m/s)
Visibility: 1.93 miles (3.11 km)
Ceiling: 2000 feet AGL
Clouds: broken clouds at 2000 feet AGL
Weather: -SHSN  (light snow showers)
Text: TEMPO 2203/2215 1200 SHSN OVC014CB
Forecast period: 0300 to 1500 UTC 22 April 2019
Forecast type: TEMPORARY: The following changes expected for less than half the time period
Visibility: 0.75 miles (1.21 km)
Ceiling: 1400 feet AGL
Clouds: overcast cloud deck at 1400 feet AGL
Weather: SHSN  (snow showers)